sensor_id;sensor_type;location;lat;lon;timestamp;pressure;altitude;pressure_sealevel;temperature;humidity
57894;BME280;43710;47.460;19.034;2023-12-20T05:29:14;100351.38;;;2.87;95.17
57894;BME280;43710;47.460;19.034;2023-12-20T05:32:17;100351.38;;;2.87;95.17
57894;BME280;43710;47.460;19.034;2023-12-20T05:35:19;100361.09;;;2.40;94.15
57894;BME280;43710;47.460;19.034;2023-12-20T05:38:22;100378.56;;;2.41;94.76
57894;BME280;43710;47.460;19.034;2023-12-20T05:41:24;100387.66;;;2.45;95.59
57894;BME280;43710;47.460;19.034;2023-12-20T05:44:26;100386.16;;;2.37;96.01
57894;BME280;43710;47.460;19.034;2023-12-20T05:47:29;100376.34;;;2.26;96.75
57894;BME280;43710;47.460;19.034;2023-12-20T05:50:31;100368.09;;;2.34;97.10
57894;BME280;43710;47.460;19.034;2023-12-20T05:53:33;100361.19;;;2.33;95.34
57894;BME280;43710;47.460;19.034;2023-12-20T05:56:36;100356.78;;;2.27;95.28
57894;BME280;43710;47.460;19.034;2023-12-20T05:59:38;100351.25;;;2.28;95.61
57894;BME280;43710;47.460;19.034;2023-12-20T06:02:41;100330.69;;;2.30;96.50
57894;BME280;43710;47.460;19.034;2023-12-20T06:05:43;100342.44;;;2.34;95.62
57894;BME280;43710;47.460;19.034;2023-12-20T06:08:45;100336.38;;;2.46;95.01
57894;BME280;43710;47.460;19.034;2023-12-20T06:11:48;100324.50;;;2.48;95.64
57894;BME280;43710;47.460;19.034;2023-12-20T06:14:50;100329.97;;;2.65;94.38
57894;BME280;43710;47.460;19.034;2023-12-20T06:17:52;100323.59;;;2.54;94.13
57894;BME280;43710;47.460;19.034;2023-12-20T06:20:55;100321.50;;;2.33;100.00
57894;BME280;43710;47.460;19.034;2023-12-20T06:23:58;100316.56;;;2.48;100.00
57894;BME280;43710;47.460;19.034;2023-12-20T06:27:01;100325.94;;;2.63;95.23
57894;BME280;43710;47.460;19.034;2023-12-20T06:30:04;100304.63;;;2.46;95.91
57894;BME280;43710;47.460;19.034;2023-12-20T06:33:06;100317.19;;;2.62;94.85
57894;BME280;43710;47.460;19.034;2023-12-20T06:36:13;100319.25;;;2.60;94.98
57894;BME280;43710;47.460;19.034;2023-12-20T06:39:15;100323.28;;;2.74;100.00
57894;BME280;43710;47.460;19.034;2023-12-20T06:42:18;100327.66;;;2.69;99.99
57894;BME280;43710;47.460;19.034;2023-12-20T06:45:20;100333.13;;;2.44;98.25
57894;BME280;43710;47.460;19.034;2023-12-20T06:48:23;100337.75;;;2.48;96.67
57894;BME280;43710;47.460;19.034;2023-12-20T06:51:26;100350.75;;;2.50;95.67
57894;BME280;43710;47.460;19.034;2023-12-20T06:54:30;100373.97;;;2.48;94.82
57894;BME280;43710;47.460;19.034;2023-12-20T06:57:32;100380.47;;;2.52;94.42
57894;BME280;43710;47.460;19.034;2023-12-20T07:00:34;100380.31;;;2.47;95.57
57894;BME280;43710;47.460;19.034;2023-12-20T07:03:37;100375.47;;;2.32;100.00
57894;BME280;43710;47.460;19.034;2023-12-20T07:06:39;100386.75;;;2.39;94.94
57894;BME280;43710;47.460;19.034;2023-12-20T07:09:41;100388.88;;;2.30;93.59
57894;BME280;43710;47.460;19.034;2023-12-20T07:12:45;100381.94;;;2.18;93.08
57894;BME280;43710;47.460;19.034;2023-12-20T07:15:47;100381.28;;;2.22;100.00
57894;BME280;43710;47.460;19.034;2023-12-20T07:18:50;100367.03;;;2.23;98.06
57894;BME280;43710;47.460;19.034;2023-12-20T07:21:54;100368.87;;;2.76;100.00
57894;BME280;43710;47.460;19.034;2023-12-20T07:24:58;100374.44;;;2.45;100.00
57894;BME280;43710;47.460;19.034;2023-12-20T07:28:00;100361.72;;;2.65;100.00
57894;BME280;43710;47.460;19.034;2023-12-20T07:31:03;100370.41;;;2.42;100.00
57894;BME280;43710;47.460;19.034;2023-12-20T07:34:06;100372.37;;;2.47;98.04
57894;BME280;43710;47.460;19.034;2023-12-20T07:37:08;100372.72;;;2.39;95.50
57894;BME280;43710;47.460;19.034;2023-12-20T07:40:13;100372.22;;;3.19;100.00
57894;BME280;43710;47.460;19.034;2023-12-20T07:43:16;100375.87;;;3.29;100.00
57894;BME280;43710;47.460;19.034;2023-12-20T07:46:18;100376.13;;;3.16;100.00
57894;BME280;43710;47.460;19.034;2023-12-20T07:49:24;100370.13;;;2.74;100.00
57894;BME280;43710;47.460;19.034;2023-12-20T07:52:27;100372.66;;;3.04;100.00
57894;BME280;43710;47.460;19.034;2023-12-20T07:55:29;100368.38;;;2.68;100.00
57894;BME280;43710;47.460;19.034;2023-12-20T07:58:33;100360.69;;;2.90;95.82
57894;BME280;43710;47.460;19.034;2023-12-20T08:01:52;100357.34;;;2.94;94.50
57894;BME280;43710;47.460;19.034;2023-12-20T08:04:55;100347.09;;;2.74;95.69
57894;BME280;43710;47.460;19.034;2023-12-20T08:07:57;100348.03;;;2.68;96.79
57894;BME280;43710;47.460;19.034;2023-12-20T08:11:00;100336.28;;;2.64;96.58
57894;BME280;43710;47.460;19.034;2023-12-20T08:14:02;100343.53;;;2.80;99.36
57894;BME280;43710;47.460;19.034;2023-12-20T08:17:04;100348.16;;;2.85;96.42
57894;BME280;43710;47.460;19.034;2023-12-20T08:20:07;100347.31;;;2.85;93.99
57894;BME280;43710;47.460;19.034;2023-12-20T08:23:10;100345.84;;;2.89;93.39
57894;BME280;43710;47.460;19.034;2023-12-20T08:26:12;100348.72;;;2.87;93.02
57894;BME280;43710;47.460;19.034;2023-12-20T08:29:15;100356.22;;;2.90;93.64
57894;BME280;43710;47.460;19.034;2023-12-20T08:32:17;100353.00;;;2.88;100.00
57894;BME280;43710;47.460;19.034;2023-12-20T08:35:19;100358.28;;;3.00;94.82
57894;BME280;43710;47.460;19.034;2023-12-20T08:38:22;100348.59;;;3.17;92.10
57894;BME280;43710;47.460;19.034;2023-12-20T08:41:24;100354.38;;;3.02;92.23
57894;BME280;43710;47.460;19.034;2023-12-20T08:44:27;100353.13;;;3.05;100.00
57894;BME280;43710;47.460;19.034;2023-12-20T08:47:30;100349.59;;;3.92;100.00
57894;BME280;43710;47.460;19.034;2023-12-20T08:50:32;100356.38;;;3.47;100.00
57894;BME280;43710;47.460;19.034;2023-12-20T08:53:35;100360.56;;;3.20;100.00
57894;BME280;43710;47.460;19.034;2023-12-20T08:56:37;100353.84;;;3.52;100.00
57894;BME280;43710;47.460;19.034;2023-12-20T08:59:39;100356.19;;;3.25;100.00
57894;BME280;43710;47.460;19.034;2023-12-20T09:02:42;100360.91;;;3.23;97.94
57894;BME280;43710;47.460;19.034;2023-12-20T09:05:45;100356.31;;;3.07;96.13
57894;BME280;43710;47.460;19.034;2023-12-20T09:08:47;100347.09;;;2.98;94.67
57894;BME280;43710;47.460;19.034;2023-12-20T09:11:50;100363.72;;;3.05;98.53
57894;BME280;43710;47.460;19.034;2023-12-20T09:14:53;100360.00;;;3.06;94.13
57894;BME280;43710;47.460;19.034;2023-12-20T09:17:56;100350.91;;;2.90;94.17
57894;BME280;43710;47.460;19.034;2023-12-20T09:20:58;100351.03;;;2.95;93.77
57894;BME280;43710;47.460;19.034;2023-12-20T09:24:01;100356.44;;;2.77;95.37
57894;BME280;43710;47.460;19.034;2023-12-20T09:27:03;100352.06;;;2.82;93.84
57894;BME280;43710;47.460;19.034;2023-12-20T09:30:06;100350.69;;;3.03;92.79
57894;BME280;43710;47.460;19.034;2023-12-20T09:33:09;100341.81;;;2.98;91.19
57894;BME280;43710;47.460;19.034;2023-12-20T09:36:11;100334.44;;;3.00;95.74
57894;BME280;43710;47.460;19.034;2023-12-20T09:39:14;100321.44;;;3.22;93.24
57894;BME280;43710;47.460;19.034;2023-12-20T09:42:23;100315.88;;;3.23;98.48
57894;BME280;43710;47.460;19.034;2023-12-20T09:45:27;100312.41;;;3.35;100.00
57894;BME280;43710;47.460;19.034;2023-12-20T09:48:30;100316.00;;;3.17;92.59
57894;BME280;43710;47.460;19.034;2023-12-20T09:51:33;100301.03;;;3.22;90.74
57894;BME280;43710;47.460;19.034;2023-12-20T09:54:36;100303.09;;;3.20;100.00
57894;BME280;43710;47.460;19.034;2023-12-20T09:57:39;100299.44;;;3.21;93.64
57894;BME280;43710;47.460;19.034;2023-12-20T10:00:42;100297.31;;;3.35;98.70
57894;BME280;43710;47.460;19.034;2023-12-20T10:03:44;100280.84;;;3.33;95.27
57894;BME280;43710;47.460;19.034;2023-12-20T10:06:47;100281.19;;;3.37;91.80
57894;BME280;43710;47.460;19.034;2023-12-20T10:09:54;100282.56;;;3.39;91.04
57894;BME280;43710;47.460;19.034;2023-12-20T10:13:07;100277.47;;;3.38;90.96
57894;BME280;43710;47.460;19.034;2023-12-20T10:16:11;100283.28;;;3.35;91.01
57894;BME280;43710;47.460;19.034;2023-12-20T10:19:16;100270.22;;;3.45;90.47
57894;BME280;43710;47.460;19.034;2023-12-20T10:22:19;100260.66;;;3.44;91.01
57894;BME280;43710;47.460;19.034;2023-12-20T10:25:21;100271.16;;;3.67;90.21
57894;BME280;43710;47.460;19.034;2023-12-20T10:28:25;100246.22;;;4.14;100.00
57894;BME280;43710;47.460;19.034;2023-12-20T10:31:32;100238.47;;;4.24;100.00
57894;BME280;43710;47.460;19.034;2023-12-20T10:34:35;100231.53;;;4.06;100.00
57894;BME280;43710;47.460;19.034;2023-12-20T10:37:37;100235.53;;;3.92;94.85
57894;BME280;43710;47.460;19.034;2023-12-20T10:40:40;100224.47;;;3.95;92.79
57894;BME280;43710;47.460;19.034;2023-12-20T10:43:43;100224.84;;;4.04;93.84
57894;BME280;43710;47.460;19.034;2023-12-20T10:46:46;100217.16;;;4.02;92.38
57894;BME280;43710;47.460;19.034;2023-12-20T10:49:54;100223.50;;;4.35;100.00
57894;BME280;43710;47.460;19.034;2023-12-20T10:52:58;100214.06;;;4.61;100.00
57894;BME280;43710;47.460;19.034;2023-12-20T10:56:02;100209.97;;;4.36;91.93
57894;BME280;43710;47.460;19.034;2023-12-20T10:59:06;100207.63;;;4.40;95.48
57894;BME280;43710;47.460;19.034;2023-12-20T11:02:12;100206.13;;;4.44;91.92
57894;BME280;43710;47.460;19.034;2023-12-20T11:05:40;100205.94;;;4.51;93.57
57894;BME280;43710;47.460;19.034;2023-12-20T11:08:50;100206.66;;;4.85;100.00
57894;BME280;43710;47.460;19.034;2023-12-20T11:12:04;100189.06;;;4.79;97.40
57894;BME280;43710;47.460;19.034;2023-12-20T11:15:11;100185.19;;;5.35;100.00
57894;BME280;43710;47.460;19.034;2023-12-20T11:18:15;100175.50;;;5.24;95.04
57894;BME280;43710;47.460;19.034;2023-12-20T11:21:17;100161.69;;;5.00;91.33
57894;BME280;43710;47.460;19.034;2023-12-20T11:24:22;100159.72;;;5.67;100.00
57894;BME280;43710;47.460;19.034;2023-12-20T11:27:25;100151.59;;;5.83;100.00
57894;BME280;43710;47.460;19.034;2023-12-20T11:30:40;100138.78;;;6.07;100.00
57894;BME280;43710;47.460;19.034;2023-12-20T11:33:43;100120.06;;;5.97;100.00
57894;BME280;43710;47.460;19.034;2023-12-20T11:36:46;100108.41;;;6.03;100.00
57894;BME280;43710;47.460;19.034;2023-12-20T11:39:55;100115.37;;;6.09;100.00
57894;BME280;43710;47.460;19.034;2023-12-20T11:43:01;100112.78;;;6.20;100.00
57894;BME280;43710;47.460;19.034;2023-12-20T11:46:04;100119.41;;;5.80;94.39
57894;BME280;43710;47.460;19.034;2023-12-20T11:49:11;100120.41;;;5.74;89.74
57894;BME280;43710;47.460;19.034;2023-12-20T11:52:13;100124.78;;;5.90;100.00
57894;BME280;43710;47.460;19.034;2023-12-20T11:55:16;100118.66;;;6.27;100.00
57894;BME280;43710;47.460;19.034;2023-12-20T11:58:18;100121.59;;;6.30;100.00
57894;BME280;43710;47.460;19.034;2023-12-20T12:01:21;100107.84;;;6.44;100.00
57894;BME280;43710;47.460;19.034;2023-12-20T12:04:24;100109.84;;;6.79;100.00
57894;BME280;43710;47.460;19.034;2023-12-20T12:07:26;100108.91;;;7.26;100.00
57894;BME280;43710;47.460;19.034;2023-12-20T12:10:29;100111.28;;;7.38;100.00
57894;BME280;43710;47.460;19.034;2023-12-20T12:13:31;100096.06;;;7.07;93.62
57894;BME280;43710;47.460;19.034;2023-12-20T12:16:34;100091.75;;;6.86;92.26
57894;BME280;43710;47.460;19.034;2023-12-20T12:19:37;100093.38;;;6.92;95.72
57894;BME280;43710;47.460;19.034;2023-12-20T12:22:40;100083.06;;;7.52;94.67
57894;BME280;43710;47.460;19.034;2023-12-20T12:25:44;100089.72;;;7.85;95.61
57894;BME280;43710;47.460;19.034;2023-12-20T12:28:47;100104.91;;;7.95;100.00
57894;BME280;43710;47.460;19.034;2023-12-20T12:31:50;100099.81;;;7.93;90.86
57894;BME280;43710;47.460;19.034;2023-12-20T12:34:53;100108.81;;;8.43;100.00
57894;BME280;43710;47.460;19.034;2023-12-20T12:37:58;100120.09;;;8.15;88.65
57894;BME280;43710;47.460;19.034;2023-12-20T12:41:01;100111.00;;;8.16;90.11
57894;BME280;43710;47.460;19.034;2023-12-20T12:44:03;100134.50;;;8.04;84.28
57894;BME280;43710;47.460;19.034;2023-12-20T12:47:18;100109.41;;;7.94;86.75
57894;BME280;43710;47.460;19.034;2023-12-20T12:50:20;100112.38;;;7.98;84.79
57894;BME280;43710;47.460;19.034;2023-12-20T12:53:24;100123.31;;;7.96;84.36
57894;BME280;43710;47.460;19.034;2023-12-20T12:56:26;100108.59;;;8.04;95.08
57894;BME280;43710;47.460;19.034;2023-12-20T12:59:29;100118.50;;;7.93;83.52
57894;BME280;43710;47.460;19.034;2023-12-20T13:02:31;100111.06;;;7.70;83.78
57894;BME280;43710;47.460;19.034;2023-12-20T13:05:33;100109.69;;;7.88;88.65
57894;BME280;43710;47.460;19.034;2023-12-20T13:08:40;100103.53;;;8.13;88.43
57894;BME280;43710;47.460;19.034;2023-12-20T13:11:44;100112.31;;;8.29;85.56
57894;BME280;43710;47.460;19.034;2023-12-20T13:14:46;100119.78;;;8.32;85.23
57894;BME280;43710;47.460;19.034;2023-12-20T13:17:49;100104.00;;;8.30;88.73
57894;BME280;43710;47.460;19.034;2023-12-20T13:20:51;100102.69;;;8.33;88.98
57894;BME280;43710;47.460;19.034;2023-12-20T13:23:54;100101.00;;;8.62;100.00
57894;BME280;43710;47.460;19.034;2023-12-20T13:26:57;100085.19;;;8.76;100.00
57894;BME280;43710;47.460;19.034;2023-12-20T13:29:59;100082.84;;;9.09;100.00
57894;BME280;43710;47.460;19.034;2023-12-20T13:33:01;100088.88;;;8.85;92.05
57894;BME280;43710;47.460;19.034;2023-12-20T13:36:04;100084.63;;;8.84;85.60
57894;BME280;43710;47.460;19.034;2023-12-20T13:39:09;100082.78;;;9.19;100.00
57894;BME280;43710;47.460;19.034;2023-12-20T13:42:12;100080.66;;;9.16;100.00
57894;BME280;43710;47.460;19.034;2023-12-20T13:45:15;100089.00;;;9.09;100.00
57894;BME280;43710;47.460;19.034;2023-12-20T13:48:17;100087.66;;;9.12;100.00
57894;BME280;43710;47.460;19.034;2023-12-20T13:51:20;100095.56;;;8.88;81.95
57894;BME280;43710;47.460;19.034;2023-12-20T13:54:23;100091.06;;;8.78;91.95
57894;BME280;43710;47.460;19.034;2023-12-20T13:57:25;100087.84;;;8.76;84.12
57894;BME280;43710;47.460;19.034;2023-12-20T14:00:47;100090.28;;;8.73;100.00
57894;BME280;43710;47.460;19.034;2023-12-20T14:03:50;100090.00;;;8.74;100.00
57894;BME280;43710;47.460;19.034;2023-12-20T14:06:53;100093.06;;;9.02;100.00
57894;BME280;43710;47.460;19.034;2023-12-20T14:09:55;100093.12;;;8.91;86.03
57894;BME280;43710;47.460;19.034;2023-12-20T14:12:57;100100.69;;;8.74;100.00
57894;BME280;43710;47.460;19.034;2023-12-20T14:16:00;100109.13;;;8.97;100.00
57894;BME280;43710;47.460;19.034;2023-12-20T14:19:04;100114.97;;;9.04;98.03
57894;BME280;43710;47.460;19.034;2023-12-20T14:22:09;100113.25;;;8.74;95.05
57894;BME280;43710;47.460;19.034;2023-12-20T14:25:14;100102.63;;;8.58;82.33
57894;BME280;43710;47.460;19.034;2023-12-20T14:28:17;100104.81;;;8.36;86.39
57894;BME280;43710;47.460;19.034;2023-12-20T14:31:19;100097.19;;;8.79;100.00
57894;BME280;43710;47.460;19.034;2023-12-20T14:34:22;100113.09;;;8.44;83.44
57894;BME280;43710;47.460;19.034;2023-12-20T14:37:26;100115.25;;;8.22;98.17
57894;BME280;43710;47.460;19.034;2023-12-20T14:40:29;100111.78;;;8.32;86.59
57894;BME280;43710;47.460;19.034;2023-12-20T14:43:31;100111.22;;;8.30;98.06
57894;BME280;43710;47.460;19.034;2023-12-20T14:46:34;100120.03;;;8.40;100.00
57894;BME280;43710;47.460;19.034;2023-12-20T14:49:36;100123.03;;;8.13;83.31
57894;BME280;43710;47.460;19.034;2023-12-20T14:52:39;100116.59;;;8.14;100.00
57894;BME280;43710;47.460;19.034;2023-12-20T14:55:42;100114.91;;;8.54;100.00
57894;BME280;43710;47.460;19.034;2023-12-20T14:58:45;100130.97;;;8.34;84.37
57894;BME280;43710;47.460;19.034;2023-12-20T15:01:47;100131.00;;;8.23;89.25
57894;BME280;43710;47.460;19.034;2023-12-20T15:04:49;100142.72;;;8.53;100.00
57894;BME280;43710;47.460;19.034;2023-12-20T15:07:53;100148.63;;;8.30;85.44
57894;BME280;43710;47.460;19.034;2023-12-20T15:10:55;100151.03;;;8.41;100.00
57894;BME280;43710;47.460;19.034;2023-12-20T15:13:57;100152.13;;;8.25;100.00
57894;BME280;43710;47.460;19.034;2023-12-20T15:17:02;100140.66;;;7.99;95.89
57894;BME280;43710;47.460;19.034;2023-12-20T15:20:05;100152.16;;;7.89;85.68
57894;BME280;43710;47.460;19.034;2023-12-20T15:23:07;100152.69;;;8.02;85.90
57894;BME280;43710;47.460;19.034;2023-12-20T15:26:10;100166.03;;;7.91;86.57
57894;BME280;43710;47.460;19.034;2023-12-20T15:29:13;100167.09;;;7.95;97.78
57894;BME280;43710;47.460;19.034;2023-12-20T15:32:17;100179.66;;;7.85;83.04
57894;BME280;43710;47.460;19.034;2023-12-20T15:35:21;100180.44;;;8.00;100.00
57894;BME280;43710;47.460;19.034;2023-12-20T15:38:23;100169.44;;;8.28;88.06
57894;BME280;43710;47.460;19.034;2023-12-20T15:41:25;100180.44;;;8.06;86.59
57894;BME280;43710;47.460;19.034;2023-12-20T15:44:28;100185.25;;;7.98;81.18
57894;BME280;43710;47.460;19.034;2023-12-20T15:47:30;100180.44;;;7.95;83.00
57894;BME280;43710;47.460;19.034;2023-12-20T15:50:32;100185.00;;;7.95;81.84
57894;BME280;43710;47.460;19.034;2023-12-20T15:53:35;100187.38;;;7.91;81.20
57894;BME280;43710;47.460;19.034;2023-12-20T15:56:38;100181.75;;;8.03;100.00
57894;BME280;43710;47.460;19.034;2023-12-20T15:59:43;100185.75;;;8.00;86.72
57894;BME280;43710;47.460;19.034;2023-12-20T16:02:45;100193.78;;;8.00;80.28
57894;BME280;43710;47.460;19.034;2023-12-20T16:05:48;100199.38;;;8.14;87.92
57894;BME280;43710;47.460;19.034;2023-12-20T16:08:50;100211.62;;;8.31;84.56
57894;BME280;43710;47.460;19.034;2023-12-20T16:11:52;100204.47;;;8.06;80.66
57894;BME280;43710;47.460;19.034;2023-12-20T16:14:55;100204.19;;;7.82;83.04
57894;BME280;43710;47.460;19.034;2023-12-20T16:17:57;100209.28;;;7.98;88.56
57894;BME280;43710;47.460;19.034;2023-12-20T16:21:00;100201.25;;;7.83;83.83
57894;BME280;43710;47.460;19.034;2023-12-20T16:24:03;100205.78;;;7.77;87.36
57894;BME280;43710;47.460;19.034;2023-12-20T16:27:06;100207.13;;;7.75;88.98
57894;BME280;43710;47.460;19.034;2023-12-20T16:30:08;100217.22;;;7.52;89.57
57894;BME280;43710;47.460;19.034;2023-12-20T16:33:11;100215.09;;;7.70;88.14
57894;BME280;43710;47.460;19.034;2023-12-20T16:36:13;100213.53;;;7.79;85.16
57894;BME280;43710;47.460;19.034;2023-12-20T16:39:16;100206.56;;;7.78;97.78
57894;BME280;43710;47.460;19.034;2023-12-20T16:42:19;100191.09;;;8.00;90.39
